createdAt,value
2023-01-21T01:22:12.280Z,69.70
2023-01-21T01:24:38.871Z,78.10
2023-01-21T01:27:05.716Z,83.30
2023-01-21T01:29:32.249Z,72.70
2023-01-21T01:31:58.788Z,74.80
2023-01-21T01:34:25.308Z,69.30
2023-01-21T01:36:52.214Z,74.50
2023-01-21T01:39:18.849Z,74.20
2023-01-21T01:41:45.475Z,68.10
2023-01-21T01:45:12.062Z,78.50
2023-01-21T01:48:00.369Z,75.00
2023-01-21T01:50:32.091Z,70.30
2023-01-21T01:53:00.222Z,68.20
2023-01-21T01:55:30.587Z,75.30
2023-01-21T01:57:57.134Z,76.20
2023-01-21T02:00:24.463Z,75.20
2023-01-21T02:03:09.840Z,77.10
2023-01-21T02:05:40.830Z,74.60
2023-01-21T02:08:07.779Z,70.00
2023-01-21T02:10:35.299Z,69.90
2023-01-21T02:13:02.185Z,61.20
2023-01-21T02:15:45.986Z,76.50
2023-01-21T02:18:26.651Z,78.00
2023-01-21T02:21:03.760Z,65.90
2023-01-21T02:23:55.731Z,68.00
2023-01-21T02:26:29.627Z,66.60
2023-01-21T02:29:26.115Z,66.70
2023-01-21T02:32:31.871Z,66.80
2023-01-21T02:37:50.811Z,73.70
2023-01-21T02:40:36.825Z,54.10
2023-01-21T02:43:13.306Z,66.70
2023-01-21T02:45:51.536Z,68.20
2023-01-21T02:48:40.788Z,59.20
2023-01-21T02:51:07.673Z,67.20
2023-01-21T02:53:35.133Z,62.70
2023-01-21T02:56:10.389Z,64.00
2023-01-21T02:58:39.824Z,62.90
2023-01-21T03:01:14.997Z,64.60
2023-01-21T03:03:46.363Z,63.10
2023-01-21T03:06:31.669Z,62.90
2023-01-21T03:09:07.043Z,54.80
2023-01-21T03:11:35.917Z,62.90
2023-01-21T03:14:47.692Z,58.60
2023-01-21T03:17:20.610Z,58.80
2023-01-21T03:20:01.887Z,59.90
2023-01-21T03:22:30.661Z,66.20
2023-01-21T03:24:57.338Z,59.90
2023-01-21T03:27:24.737Z,59.00
2023-01-21T03:29:57.272Z,57.90
2023-01-21T03:32:23.834Z,59.40
2023-01-21T03:34:51.390Z,59.50
2023-01-21T03:37:28.507Z,56.90
2023-01-21T03:40:10.260Z,60.10
2023-01-21T03:42:36.863Z,62.60
2023-01-21T03:45:06.920Z,56.80
2023-01-21T03:47:37.752Z,55.30
2023-01-21T03:50:13.299Z,58.70
2023-01-21T03:52:41.319Z,61.20
2023-01-21T03:55:08.393Z,56.70
2023-01-21T03:57:35.010Z,57.10
2023-01-21T04:00:03.073Z,61.20
2023-01-21T04:02:33.496Z,53.40
2023-01-21T04:05:03.220Z,59.40
2023-01-21T04:07:31.359Z,51.70
2023-01-21T04:09:57.885Z,52.70
2023-01-21T04:12:26.874Z,50.00
2023-01-21T04:14:54.798Z,52.30
2023-01-21T04:17:21.776Z,58.80
2023-01-21T04:19:48.942Z,52.70
2023-01-21T04:22:16.965Z,47.80
2023-01-21T04:24:43.897Z,55.80
2023-01-21T04:27:10.787Z,51.10
2023-01-21T04:29:38.007Z,50.20
2023-01-21T04:32:04.741Z,51.60
2023-01-21T04:34:31.278Z,50.70
2023-01-21T04:37:01.224Z,60.50
2023-01-21T04:39:28.052Z,48.30
2023-01-21T04:41:54.605Z,51.20
2023-01-21T04:44:21.515Z,54.10
2023-01-21T04:46:49.686Z,52.20
2023-01-21T04:49:16.160Z,44.10
2023-01-21T04:51:44.091Z,54.10
2023-01-21T04:54:11.659Z,45.90
2023-01-21T04:56:38.210Z,54.60
2023-01-21T04:59:04.732Z,51.90
2023-01-21T05:01:32.050Z,45.60
2023-01-21T05:04:00.809Z,55.80
2023-01-21T05:06:27.452Z,47.30
2023-01-21T05:08:54.214Z,50.10
2023-01-21T05:11:20.877Z,47.00
2023-01-21T05:13:47.497Z,41.80
2023-01-21T05:16:14.245Z,54.30
2023-01-21T05:18:46.741Z,46.30
2023-01-21T05:21:13.519Z,47.10
2023-01-21T05:23:40.106Z,52.70
2023-01-21T05:26:07.317Z,44.30
2023-01-21T05:28:35.659Z,48.30
2023-01-21T05:31:03.755Z,53.30
2023-01-21T05:33:34.376Z,53.40
2023-01-21T05:36:02.741Z,45.80
2023-01-21T05:38:29.529Z,54.80
2023-01-21T05:40:59.598Z,44.50
2023-01-21T05:43:26.164Z,42.70
2023-01-21T05:45:54.554Z,44.00
2023-01-21T05:48:21.658Z,44.00
2023-01-21T05:50:48.725Z,47.20
2023-01-21T05:53:16.576Z,45.50
2023-01-21T05:55:43.093Z,45.00
2023-01-21T05:58:09.763Z,47.90
2023-01-21T06:00:36.965Z,42.40
2023-01-21T06:03:04.109Z,48.50
2023-01-21T06:05:33.381Z,41.80
2023-01-21T06:08:03.796Z,48.30
2023-01-21T06:10:32.729Z,40.30
2023-01-21T06:12:59.334Z,48.30
2023-01-21T06:15:31.484Z,48.70
2023-01-21T06:18:00.209Z,48.80
2023-01-21T06:20:29.751Z,50.10
2023-01-21T06:22:56.991Z,47.00
2023-01-21T06:25:28.601Z,44.20
2023-01-21T06:27:55.482Z,41.90
2023-01-21T06:30:22.866Z,51.40
2023-01-21T06:32:49.571Z,48.10
2023-01-21T06:35:17.081Z,42.30
2023-01-21T06:37:47.030Z,46.60
2023-01-21T06:40:17.017Z,41.90
2023-01-21T06:42:51.042Z,47.30
2023-01-21T06:45:17.965Z,40.80
2023-01-21T06:47:44.708Z,42.10
2023-01-21T06:50:12.783Z,44.90
2023-01-21T06:52:41.295Z,48.00
2023-01-21T06:55:08.707Z,51.60
2023-01-21T06:57:35.791Z,51.10
2023-01-21T07:00:02.445Z,49.00
2023-01-21T07:02:31.420Z,44.90
2023-01-21T07:04:59.189Z,49.00
2023-01-21T07:07:26.295Z,45.80
2023-01-21T07:09:52.967Z,48.80
2023-01-21T07:12:20.197Z,48.80
2023-01-21T07:14:46.871Z,46.20
2023-01-21T07:17:13.947Z,53.50
2023-01-21T07:19:43.632Z,42.00
2023-01-21T07:22:13.305Z,43.00
2023-01-21T07:24:41.836Z,45.40
2023-01-21T07:27:11.897Z,50.20
2023-01-21T07:29:38.458Z,51.20
2023-01-21T07:32:05.205Z,44.20
2023-01-21T07:34:32.423Z,53.00
2023-01-21T07:36:59.026Z,44.20
2023-01-21T07:39:25.659Z,42.60
2023-01-21T07:41:52.867Z,39.90
2023-01-21T07:44:19.747Z,47.30
2023-01-21T07:46:46.523Z,40.50
2023-01-21T07:49:17.631Z,42.50
2023-01-21T07:51:45.810Z,45.90
2023-01-21T07:54:12.978Z,41.40
2023-01-21T07:56:39.785Z,41.90
2023-01-21T07:59:06.603Z,47.20
2023-01-21T08:01:33.887Z,42.00
2023-01-21T08:04:01.830Z,46.30
2023-01-21T08:06:29.092Z,43.20
2023-01-21T08:08:58.062Z,44.30
2023-01-21T08:11:24.790Z,50.30
2023-01-21T08:13:51.449Z,45.70
2023-01-21T08:24:02.308Z,43.10
2023-01-21T08:26:29.166Z,45.90
2023-01-21T08:28:55.764Z,49.00
2023-01-21T08:31:22.683Z,52.30
2023-01-21T08:33:49.293Z,43.60
2023-01-21T08:36:16.409Z,42.20
2023-01-21T08:38:43.544Z,44.10
2023-01-21T08:41:10.227Z,42.50
2023-01-21T08:43:37.016Z,48.00
2023-01-21T08:46:04.422Z,44.80
2023-01-21T08:48:31.029Z,44.80
2023-01-21T08:50:59.513Z,49.10
2023-01-21T08:53:26.527Z,45.10
2023-01-21T08:55:53.078Z,40.30
2023-01-21T08:58:23.220Z,48.30
2023-01-21T09:00:51.009Z,40.80
2023-01-21T09:03:19.278Z,45.10
2023-01-21T09:05:46.812Z,50.40
2023-01-21T09:08:14.273Z,45.50
2023-01-21T09:10:59.432Z,47.30
2023-01-21T09:13:29.219Z,50.40
2023-01-21T09:15:56.352Z,49.50
2023-01-21T09:18:23.160Z,43.30
2023-01-21T09:20:49.895Z,44.10
2023-01-21T09:23:25.666Z,41.90
2023-01-21T09:25:53.534Z,49.70
2023-01-21T09:28:21.137Z,43.00
2023-01-21T09:30:48.056Z,43.10
2023-01-21T09:33:14.947Z,49.70
2023-01-21T09:35:41.676Z,46.20
2023-01-21T09:38:08.230Z,52.80
2023-01-21T09:40:35.033Z,51.40
2023-01-21T09:43:02.442Z,52.00
2023-01-21T09:45:29.104Z,51.40
2023-01-21T09:47:56.183Z,49.80
2023-01-21T09:50:23.957Z,50.30
2023-01-21T09:52:52.179Z,47.20
2023-01-21T09:55:47.046Z,47.90
2023-01-21T09:58:32.359Z,50.00
2023-01-21T10:01:01.921Z,47.70
2023-01-21T10:03:33.604Z,45.00
2023-01-21T10:06:18.954Z,50.30
2023-01-21T10:09:01.093Z,48.20
2023-01-21T10:11:46.364Z,54.50
2023-01-21T10:16:45.768Z,51.20
2023-01-21T10:19:14.759Z,55.00
2023-01-21T10:21:53.999Z,46.50
2023-01-21T10:24:23.241Z,51.30
2023-01-21T10:26:50.479Z,47.40
2023-01-21T10:29:19.771Z,53.90
2023-01-21T10:32:07.232Z,52.90
2023-01-21T10:34:38.058Z,54.70
2023-01-21T10:37:38.463Z,52.10
2023-01-21T10:40:17.503Z,57.20
2023-01-21T10:42:58.093Z,51.40
2023-01-21T10:45:37.264Z,66.10
2023-01-21T10:48:23.332Z,47.80
2023-01-21T10:51:06.092Z,58.00
2023-01-21T10:53:47.988Z,51.10
2023-01-21T10:56:26.212Z,50.00
2023-01-21T10:59:01.080Z,50.90
2023-01-21T11:01:29.892Z,44.30
2023-01-21T11:04:01.217Z,49.90
2023-01-21T11:06:29.078Z,55.60
2023-01-21T11:08:58.382Z,59.80
2023-01-21T11:11:35.911Z,56.40
2023-01-21T11:14:03.416Z,55.30
2023-01-21T11:16:55.725Z,55.10
2023-01-21T11:19:32.947Z,54.80
2023-01-21T11:22:06.316Z,50.40
2023-01-21T11:24:42.806Z,52.40
2023-01-21T11:27:34.966Z,46.50
2023-01-21T11:30:02.203Z,54.50
2023-01-21T11:32:29.726Z,57.20
2023-01-21T11:35:10.679Z,53.60
2023-01-21T11:37:38.292Z,50.20
2023-01-21T11:40:06.859Z,52.60
2023-01-21T11:42:33.676Z,54.40
2023-01-21T11:45:09.031Z,55.30
2023-01-21T11:47:38.940Z,59.50
2023-01-21T11:50:35.326Z,56.50
2023-01-21T11:53:09.819Z,59.60
2023-01-21T11:55:40.528Z,51.90
2023-01-21T11:58:16.470Z,57.70
2023-01-21T12:00:45.085Z,58.20
2023-01-21T12:03:14.470Z,52.90
2023-01-21T12:05:43.158Z,54.70
2023-01-21T12:08:25.858Z,63.20
2023-01-21T12:10:57.193Z,60.60
2023-01-21T12:13:49.596Z,65.30
2023-01-21T12:16:25.628Z,60.20
2023-01-21T12:19:07.837Z,58.20
2023-01-21T12:22:12.707Z,65.50
2023-01-21T12:25:01.273Z,58.00
2023-01-21T12:27:41.166Z,56.00
2023-01-21T12:30:08.156Z,61.20
2023-01-21T12:32:39.565Z,64.20
2023-01-21T12:35:23.787Z,66.30
2023-01-21T12:38:28.242Z,68.00
2023-01-21T12:40:57.732Z,46.40
2023-01-21T12:43:27.921Z,65.50
2023-01-21T12:46:10.816Z,66.00
2023-01-21T12:48:48.316Z,74.20
2023-01-21T12:51:19.311Z,61.40
2023-01-21T12:54:12.241Z,66.60
2023-01-21T12:56:42.036Z,57.10
2023-01-21T12:59:13.562Z,63.30
2023-01-21T13:02:05.816Z,63.70
2023-01-21T13:05:01.320Z,58.30
2023-01-21T13:07:32.324Z,55.30
2023-01-21T13:10:08.648Z,52.30
2023-01-21T13:12:35.684Z,64.10
2023-01-21T13:15:22.201Z,55.70
2023-01-21T13:17:55.768Z,43.90
2023-01-21T13:20:27.989Z,43.40
2023-01-21T13:23:16.468Z,40.00
2023-01-21T13:26:24.600Z,39.40
2023-01-21T13:28:57.885Z,43.90
2023-01-21T13:31:35.523Z,53.80
2023-01-21T13:34:21.829Z,46.10
2023-01-21T13:37:06.869Z,41.80
2023-01-21T13:39:45.236Z,50.00
2023-01-21T13:42:30.814Z,49.40
2023-01-21T13:45:12.234Z,50.60
2023-01-21T13:48:02.915Z,47.50
2023-01-21T13:50:54.699Z,49.40
2023-01-21T13:53:48.622Z,43.30
2023-01-21T13:56:59.566Z,39.70
2023-01-21T14:00:04.815Z,44.40
2023-01-21T14:03:02.816Z,36.80
2023-01-21T14:05:45.936Z,51.30
2023-01-21T14:08:29.859Z,41.80
2023-01-21T14:13:50.829Z,36.20
2023-01-21T14:16:45.359Z,42.30
2023-01-21T14:19:36.525Z,40.60
2023-01-21T14:22:27.993Z,39.80
2023-01-21T14:25:08.092Z,41.00
2023-01-21T14:27:46.201Z,41.70
2023-01-21T14:30:21.007Z,38.90
2023-01-21T14:32:55.855Z,44.10
2023-01-21T14:35:29.746Z,43.70
2023-01-21T14:37:59.523Z,36.60
2023-01-21T14:40:31.872Z,42.00
2023-01-21T14:42:59.378Z,39.00
2023-01-21T14:45:55.244Z,37.30
2023-01-21T14:48:30.119Z,34.70
2023-01-21T14:51:06.126Z,37.70
2023-01-21T14:53:50.924Z,38.20
2023-01-21T14:56:29.133Z,30.00
2023-01-21T14:59:01.639Z,27.80
2023-01-21T15:01:38.084Z,34.60
2023-01-21T15:04:30.298Z,29.90
2023-01-21T15:07:02.122Z,28.70
2023-01-21T15:09:31.586Z,27.70
2023-01-21T15:12:13.451Z,32.40
2023-01-21T15:14:41.872Z,30.10
2023-01-21T15:17:43.930Z,28.40
2023-01-21T15:20:44.451Z,26.70
2023-01-21T15:23:28.774Z,22.60
2023-01-21T15:26:04.895Z,25.40
2023-01-21T15:28:43.586Z,25.60
2023-01-21T15:31:13.088Z,25.80
2023-01-21T15:33:43.575Z,28.60
2023-01-21T15:36:20.483Z,25.10
2023-01-21T15:38:51.256Z,31.20
2023-01-21T15:41:32.109Z,36.80
2023-01-21T15:44:25.113Z,29.50
2023-01-21T15:46:51.814Z,31.20
2023-01-21T15:49:25.274Z,33.20
2023-01-21T15:52:00.830Z,34.50
2023-01-21T15:54:33.594Z,39.70
2023-01-21T15:57:23.508Z,43.20
2023-01-21T15:59:56.759Z,32.90
2023-01-21T16:02:48.154Z,23.90
2023-01-21T16:05:24.395Z,38.80
2023-01-21T16:08:01.351Z,45.10
2023-01-21T16:10:37.983Z,35.20
2023-01-21T16:13:26.595Z,36.60
2023-01-21T16:16:35.141Z,37.90
2023-01-21T16:19:10.742Z,33.20
2023-01-21T16:21:40.240Z,36.70
2023-01-21T16:24:10.503Z,38.70
2023-01-21T16:26:40.200Z,37.10
2023-01-21T16:29:13.173Z,31.40
2023-01-21T16:31:59.625Z,33.90
2023-01-21T16:34:43.064Z,33.60
2023-01-21T16:37:20.625Z,37.90
2023-01-21T16:39:47.694Z,38.20
2023-01-21T16:42:22.450Z,45.00
2023-01-21T16:44:49.193Z,36.40
2023-01-21T16:47:32.456Z,40.00
2023-01-21T16:49:59.661Z,38.70
2023-01-21T16:52:26.723Z,36.30
2023-01-21T16:54:56.518Z,36.00
2023-01-21T16:57:31.624Z,32.90
2023-01-21T16:59:58.821Z,29.50
2023-01-21T17:02:28.491Z,37.10
2023-01-21T17:04:59.621Z,39.00
2023-01-21T17:07:41.321Z,32.20
2023-01-21T17:10:14.941Z,30.00
2023-01-21T17:13:04.653Z,30.30
2023-01-21T17:15:38.700Z,36.70
2023-01-21T17:18:07.493Z,33.90
2023-01-21T17:20:45.828Z,38.00
2023-01-21T17:23:19.137Z,34.60
2023-01-21T17:25:53.666Z,36.90
2023-01-21T17:31:16.562Z,31.00
2023-01-21T17:33:43.712Z,36.30
2023-01-21T17:36:15.425Z,37.80
2023-01-21T17:38:43.944Z,34.80
2023-01-21T17:41:32.121Z,35.80
2023-01-21T17:44:00.426Z,33.50
2023-01-21T17:46:27.412Z,37.70
2023-01-21T17:49:05.543Z,33.60
2023-01-21T17:51:32.375Z,29.80
2023-01-21T17:54:04.065Z,38.00
2023-01-21T17:56:37.052Z,35.90
2023-01-21T17:59:03.908Z,37.40
2023-01-21T18:01:30.839Z,31.50
2023-01-21T18:03:58.077Z,35.80
2023-01-21T18:06:28.630Z,34.50
2023-01-21T18:08:56.489Z,40.90
2023-01-21T18:11:32.030Z,38.60
2023-01-21T18:14:00.762Z,41.20
2023-01-21T18:16:27.668Z,40.10
2023-01-21T18:18:54.850Z,40.10
2023-01-21T18:21:21.892Z,37.20
2023-01-21T18:23:49.787Z,38.80
2023-01-21T18:26:20.462Z,36.60
2023-01-21T18:28:50.087Z,39.90
2023-01-21T18:31:20.349Z,38.00
2023-01-21T18:33:47.392Z,46.70
2023-01-21T18:36:14.279Z,33.60
2023-01-21T18:38:41.109Z,30.80
2023-01-21T18:41:08.974Z,45.60
2023-01-21T18:43:35.863Z,38.90
2023-01-21T18:46:02.689Z,41.40
2023-01-21T18:48:29.966Z,41.30
2023-01-21T18:50:56.771Z,37.10
2023-01-21T18:53:24.034Z,41.30
2023-01-21T18:55:51.241Z,39.20
2023-01-21T18:58:18.023Z,39.10
2023-01-21T19:00:44.768Z,38.10
2023-01-21T19:03:15.174Z,40.70
2023-01-21T19:05:44.296Z,37.70
2023-01-21T19:08:12.708Z,40.30
2023-01-21T19:10:39.569Z,38.20
2023-01-21T19:13:06.291Z,41.30
2023-01-21T19:15:33.062Z,44.70
2023-01-21T19:18:02.701Z,40.80
2023-01-21T19:20:29.660Z,32.80
2023-01-21T19:22:56.724Z,38.30
2023-01-21T19:25:27.361Z,35.40
2023-01-21T19:27:56.211Z,40.70
2023-01-21T19:30:30.724Z,34.60
2023-01-21T19:32:58.202Z,36.20
2023-01-21T19:35:33.480Z,39.50
2023-01-21T19:38:00.411Z,37.70
2023-01-21T19:40:28.014Z,40.30
2023-01-21T19:42:55.037Z,43.90
2023-01-21T19:45:22.278Z,40.40
2023-01-21T19:47:49.617Z,42.70
2023-01-21T19:50:24.509Z,39.70
2023-01-21T19:52:51.940Z,37.50
2023-01-21T19:55:20.306Z,44.80
2023-01-21T19:57:47.072Z,41.60
2023-01-21T20:00:21.085Z,43.70
2023-01-21T20:02:50.802Z,37.00
2023-01-21T20:05:17.822Z,36.70
2023-01-21T20:07:45.799Z,34.50
2023-01-21T20:10:26.771Z,36.00
2023-01-21T20:12:55.027Z,33.40
2023-01-21T20:15:32.072Z,32.90
2023-01-21T20:17:59.924Z,36.00
2023-01-21T20:20:29.085Z,38.50
2023-01-21T20:22:55.861Z,28.30
2023-01-21T20:25:24.176Z,30.50
2023-01-21T20:27:55.493Z,34.00
2023-01-21T20:30:24.289Z,33.00
2023-01-21T20:32:51.086Z,39.50
2023-01-21T20:35:19.761Z,34.80
2023-01-21T20:37:51.368Z,37.90
2023-01-21T20:40:23.310Z,40.00
2023-01-21T20:42:50.868Z,40.70
2023-01-21T20:45:18.781Z,40.70
2023-01-21T20:47:50.048Z,40.90
2023-01-21T20:50:19.353Z,40.20
2023-01-21T20:52:46.868Z,43.00
2023-01-21T20:55:13.719Z,45.20
2023-01-21T20:57:41.051Z,45.50
2023-01-21T21:00:18.248Z,37.70
2023-01-21T21:02:45.358Z,41.30
2023-01-21T21:05:13.474Z,45.50
2023-01-21T21:07:40.391Z,40.60
2023-01-21T21:10:12.267Z,39.70
2023-01-21T21:12:39.064Z,45.00
2023-01-21T21:15:06.569Z,49.40
2023-01-21T21:17:34.948Z,43.30
2023-01-21T21:20:01.793Z,58.80
2023-01-21T21:22:28.577Z,36.50
2023-01-21T21:24:55.292Z,37.60
2023-01-21T21:27:25.116Z,46.70
2023-01-21T21:29:56.239Z,50.40
2023-01-21T21:32:22.952Z,42.10
2023-01-21T21:34:51.323Z,47.60
2023-01-21T21:37:18.142Z,46.80
2023-01-21T21:39:44.833Z,38.90
2023-01-21T21:42:30.797Z,35.30
2023-01-21T21:44:58.856Z,38.00
2023-01-21T21:47:44.489Z,34.50
2023-01-21T21:50:11.195Z,39.90
2023-01-21T21:52:37.899Z,44.50
2023-01-21T21:55:05.253Z,47.30
2023-01-21T21:57:32.282Z,48.70
2023-01-21T22:00:00.850Z,44.90
2023-01-21T22:02:27.571Z,44.90
2023-01-21T22:04:55.069Z,36.80
2023-01-21T22:07:21.782Z,43.20
2023-01-21T22:09:48.530Z,43.70
2023-01-21T22:12:15.280Z,42.10
2023-01-21T22:14:42.073Z,55.90
2023-01-21T22:17:09.160Z,54.30
2023-01-21T22:19:37.732Z,50.80
2023-01-21T22:22:04.653Z,48.40
2023-01-21T22:24:31.361Z,55.10
2023-01-21T22:26:58.058Z,45.80
2023-01-21T22:29:24.774Z,66.10
2023-01-21T22:33:26.928Z,51.30
2023-01-21T22:35:53.730Z,54.40
2023-01-21T22:38:20.468Z,62.20
2023-01-21T22:40:54.185Z,56.00
2023-01-21T22:43:21.141Z,55.10
2023-01-21T22:45:48.469Z,65.30
2023-01-21T22:48:15.507Z,40.80
2023-01-21T22:50:44.449Z,56.50
2023-01-21T22:53:12.174Z,77.00
2023-01-21T22:55:39.052Z,48.50
2023-01-21T22:58:06.159Z,42.50
2023-01-21T23:00:40.456Z,59.90
2023-01-21T23:03:07.719Z,60.20
2023-01-21T23:05:35.175Z,64.60
2023-01-21T23:08:02.112Z,78.80
2023-01-21T23:10:28.998Z,47.70
2023-01-21T23:12:55.743Z,45.30
2023-01-21T23:15:22.907Z,56.00
2023-01-21T23:17:50.376Z,57.70
2023-01-21T23:20:17.794Z,60.80
2023-01-21T23:22:44.910Z,59.20
2023-01-21T23:25:12.771Z,63.00
2023-01-21T23:27:39.511Z,52.20
2023-01-21T23:30:07.743Z,72.50
2023-01-21T23:32:34.434Z,60.10
2023-01-21T23:35:01.118Z,65.70
2023-01-21T23:37:27.924Z,56.80
2023-01-21T23:39:54.724Z,56.50
2023-01-21T23:42:23.693Z,62.90
2023-01-21T23:44:51.116Z,54.30
2023-01-21T23:47:18.562Z,65.40
2023-01-21T23:49:45.276Z,68.30
2023-01-21T23:52:12.651Z,45.60
2023-01-21T23:54:40.483Z,54.90
2023-01-21T23:57:07.551Z,68.40
2023-01-21T23:59:35.593Z,56.00
